sensor_id;sensor_type;location;lat;lon;timestamp;P1;durP1;ratioP1;P2;durP2;ratioP2
15063;SDS011;7631;52.088;5.088;2022-10-16T00:00:00;2.70;;;1.20;;
15063;SDS011;7631;52.088;5.088;2022-10-16T00:02:25;1.60;;;1.10;;
15063;SDS011;7631;52.088;5.088;2022-10-16T00:04:50;1.83;;;1.03;;
15063;SDS011;7631;52.088;5.088;2022-10-16T00:07:16;1.17;;;0.80;;
15063;SDS011;7631;52.088;5.088;2022-10-16T00:09:41;1.20;;;1.10;;
15063;SDS011;7631;52.088;5.088;2022-10-16T00:12:06;1.00;;;0.90;;
15063;SDS011;7631;52.088;5.088;2022-10-16T00:14:32;3.67;;;1.03;;
15063;SDS011;7631;52.088;5.088;2022-10-16T00:16:57;1.83;;;1.10;;
15063;SDS011;7631;52.088;5.088;2022-10-16T00:19:22;3.07;;;1.10;;
15063;SDS011;7631;52.088;5.088;2022-10-16T00:21:48;1.20;;;0.93;;
15063;SDS011;7631;52.088;5.088;2022-10-16T00:24:13;1.60;;;1.00;;
15063;SDS011;7631;52.088;5.088;2022-10-16T00:26:38;1.23;;;0.97;;
15063;SDS011;7631;52.088;5.088;2022-10-16T00:29:04;2.07;;;0.90;;
15063;SDS011;7631;52.088;5.088;2022-10-16T00:31:29;1.10;;;1.00;;
15063;SDS011;7631;52.088;5.088;2022-10-16T00:33:55;2.07;;;1.10;;
15063;SDS011;7631;52.088;5.088;2022-10-16T00:36:21;1.90;;;1.10;;
15063;SDS011;7631;52.088;5.088;2022-10-16T00:38:47;1.40;;;0.90;;
15063;SDS011;7631;52.088;5.088;2022-10-16T00:41:15;1.80;;;1.00;;
15063;SDS011;7631;52.088;5.088;2022-10-16T00:44:00;1.27;;;0.97;;
15063;SDS011;7631;52.088;5.088;2022-10-16T00:46:36;2.23;;;1.23;;
15063;SDS011;7631;52.088;5.088;2022-10-16T00:51:35;2.33;;;1.23;;
15063;SDS011;7631;52.088;5.088;2022-10-16T00:54:01;2.30;;;1.20;;
15063;SDS011;7631;52.088;5.088;2022-10-16T00:56:27;2.07;;;1.40;;
15063;SDS011;7631;52.088;5.088;2022-10-16T00:58:52;1.47;;;1.10;;
15063;SDS011;7631;52.088;5.088;2022-10-16T01:01:17;2.43;;;1.10;;
15063;SDS011;7631;52.088;5.088;2022-10-16T01:03:43;1.43;;;1.10;;
15063;SDS011;7631;52.088;5.088;2022-10-16T01:08:35;2.40;;;1.10;;
15063;SDS011;7631;52.088;5.088;2022-10-16T01:11:07;1.47;;;1.03;;
15063;SDS011;7631;52.088;5.088;2022-10-16T01:13:38;1.70;;;1.23;;
15063;SDS011;7631;52.088;5.088;2022-10-16T01:16:11;2.27;;;1.30;;
15063;SDS011;7631;52.088;5.088;2022-10-16T01:18:45;3.30;;;1.40;;
15063;SDS011;7631;52.088;5.088;2022-10-16T01:23:59;2.13;;;1.10;;
15063;SDS011;7631;52.088;5.088;2022-10-16T01:28:55;1.47;;;1.00;;
15063;SDS011;7631;52.088;5.088;2022-10-16T01:31:23;1.77;;;1.23;;
15063;SDS011;7631;52.088;5.088;2022-10-16T01:36:51;1.40;;;1.10;;
15063;SDS011;7631;52.088;5.088;2022-10-16T01:39:16;1.30;;;0.90;;
15063;SDS011;7631;52.088;5.088;2022-10-16T01:41:46;1.80;;;1.30;;
15063;SDS011;7631;52.088;5.088;2022-10-16T01:44:14;1.97;;;1.27;;
15063;SDS011;7631;52.088;5.088;2022-10-16T01:46:43;1.60;;;1.20;;
15063;SDS011;7631;52.088;5.088;2022-10-16T01:49:10;1.17;;;0.90;;
15063;SDS011;7631;52.088;5.088;2022-10-16T01:51:35;1.90;;;1.30;;
15063;SDS011;7631;52.088;5.088;2022-10-16T01:54:01;1.83;;;1.20;;
15063;SDS011;7631;52.088;5.088;2022-10-16T01:56:26;1.00;;;0.80;;
15063;SDS011;7631;52.088;5.088;2022-10-16T01:58:54;1.70;;;1.40;;
15063;SDS011;7631;52.088;5.088;2022-10-16T02:01:21;2.60;;;1.20;;
15063;SDS011;7631;52.088;5.088;2022-10-16T02:03:46;1.50;;;1.20;;
15063;SDS011;7631;52.088;5.088;2022-10-16T02:06:14;2.00;;;1.30;;
15063;SDS011;7631;52.088;5.088;2022-10-16T02:08:39;2.50;;;1.37;;
15063;SDS011;7631;52.088;5.088;2022-10-16T02:11:08;1.83;;;1.33;;
15063;SDS011;7631;52.088;5.088;2022-10-16T02:13:35;1.77;;;1.30;;
15063;SDS011;7631;52.088;5.088;2022-10-16T02:16:02;1.10;;;0.90;;
15063;SDS011;7631;52.088;5.088;2022-10-16T02:18:27;1.80;;;1.20;;
15063;SDS011;7631;52.088;5.088;2022-10-16T02:20:57;1.40;;;1.10;;
15063;SDS011;7631;52.088;5.088;2022-10-16T02:23:57;3.00;;;1.10;;
15063;SDS011;7631;52.088;5.088;2022-10-16T02:26:17;1.43;;;1.10;;
15063;SDS011;7631;52.088;5.088;2022-10-16T02:28:48;1.70;;;1.30;;
15063;SDS011;7631;52.088;5.088;2022-10-16T02:31:18;1.33;;;1.03;;
15063;SDS011;7631;52.088;5.088;2022-10-16T02:33:46;1.60;;;1.20;;
15063;SDS011;7631;52.088;5.088;2022-10-16T02:36:11;1.93;;;1.30;;
15063;SDS011;7631;52.088;5.088;2022-10-16T02:38:37;1.40;;;1.07;;
15063;SDS011;7631;52.088;5.088;2022-10-16T02:41:03;2.60;;;1.40;;
15063;SDS011;7631;52.088;5.088;2022-10-16T02:43:28;2.00;;;1.17;;
15063;SDS011;7631;52.088;5.088;2022-10-16T02:45:53;2.27;;;1.30;;
15063;SDS011;7631;52.088;5.088;2022-10-16T02:48:18;1.80;;;1.13;;
15063;SDS011;7631;52.088;5.088;2022-10-16T02:50:44;1.40;;;1.30;;
15063;SDS011;7631;52.088;5.088;2022-10-16T02:53:09;1.30;;;1.20;;
15063;SDS011;7631;52.088;5.088;2022-10-16T02:55:34;2.00;;;1.20;;
15063;SDS011;7631;52.088;5.088;2022-10-16T02:57:59;1.37;;;1.27;;
15063;SDS011;7631;52.088;5.088;2022-10-16T03:00:24;2.40;;;1.20;;
15063;SDS011;7631;52.088;5.088;2022-10-16T03:02:50;1.00;;;0.90;;
15063;SDS011;7631;52.088;5.088;2022-10-16T03:05:15;1.50;;;1.20;;
15063;SDS011;7631;52.088;5.088;2022-10-16T03:07:40;1.47;;;1.20;;
15063;SDS011;7631;52.088;5.088;2022-10-16T03:10:05;1.10;;;1.00;;
15063;SDS011;7631;52.088;5.088;2022-10-16T03:12:31;3.00;;;1.23;;
15063;SDS011;7631;52.088;5.088;2022-10-16T03:14:56;1.57;;;1.20;;
15063;SDS011;7631;52.088;5.088;2022-10-16T03:17:21;1.60;;;1.20;;
15063;SDS011;7631;52.088;5.088;2022-10-16T03:19:47;1.60;;;1.10;;
15063;SDS011;7631;52.088;5.088;2022-10-16T03:22:12;2.27;;;1.27;;
15063;SDS011;7631;52.088;5.088;2022-10-16T03:24:37;1.43;;;1.17;;
15063;SDS011;7631;52.088;5.088;2022-10-16T03:27:02;1.47;;;1.07;;
15063;SDS011;7631;52.088;5.088;2022-10-16T03:29:27;1.00;;;0.90;;
15063;SDS011;7631;52.088;5.088;2022-10-16T03:31:54;1.70;;;1.20;;
15063;SDS011;7631;52.088;5.088;2022-10-16T03:34:19;1.20;;;1.00;;
15063;SDS011;7631;52.088;5.088;2022-10-16T03:36:44;1.30;;;1.03;;
15063;SDS011;7631;52.088;5.088;2022-10-16T03:39:10;1.50;;;1.20;;
15063;SDS011;7631;52.088;5.088;2022-10-16T03:41:35;1.83;;;1.27;;
15063;SDS011;7631;52.088;5.088;2022-10-16T03:44:00;2.60;;;1.20;;
15063;SDS011;7631;52.088;5.088;2022-10-16T03:46:25;1.40;;;1.00;;
15063;SDS011;7631;52.088;5.088;2022-10-16T03:48:50;1.20;;;0.97;;
15063;SDS011;7631;52.088;5.088;2022-10-16T03:51:16;1.43;;;1.10;;
15063;SDS011;7631;52.088;5.088;2022-10-16T03:53:41;1.87;;;1.10;;
15063;SDS011;7631;52.088;5.088;2022-10-16T03:56:06;1.17;;;0.93;;
15063;SDS011;7631;52.088;5.088;2022-10-16T03:58:31;1.10;;;0.90;;
15063;SDS011;7631;52.088;5.088;2022-10-16T04:00:56;1.20;;;1.10;;
15063;SDS011;7631;52.088;5.088;2022-10-16T04:03:22;1.30;;;1.17;;
15063;SDS011;7631;52.088;5.088;2022-10-16T04:05:47;1.10;;;0.80;;
15063;SDS011;7631;52.088;5.088;2022-10-16T04:08:13;1.23;;;1.10;;
15063;SDS011;7631;52.088;5.088;2022-10-16T04:10:38;1.53;;;0.90;;
15063;SDS011;7631;52.088;5.088;2022-10-16T04:13:03;1.30;;;1.03;;
15063;SDS011;7631;52.088;5.088;2022-10-16T04:15:28;1.87;;;1.07;;
15063;SDS011;7631;52.088;5.088;2022-10-16T04:17:54;1.70;;;1.10;;
15063;SDS011;7631;52.088;5.088;2022-10-16T04:20:19;1.00;;;0.90;;
15063;SDS011;7631;52.088;5.088;2022-10-16T04:22:44;1.53;;;0.90;;
15063;SDS011;7631;52.088;5.088;2022-10-16T04:25:09;1.23;;;1.07;;
15063;SDS011;7631;52.088;5.088;2022-10-16T04:27:36;1.00;;;0.80;;
15063;SDS011;7631;52.088;5.088;2022-10-16T04:30:01;1.43;;;1.10;;
15063;SDS011;7631;52.088;5.088;2022-10-16T04:32:26;2.00;;;1.20;;
15063;SDS011;7631;52.088;5.088;2022-10-16T04:34:51;1.77;;;1.20;;
15063;SDS011;7631;52.088;5.088;2022-10-16T04:37:17;1.03;;;0.87;;
15063;SDS011;7631;52.088;5.088;2022-10-16T04:39:42;1.53;;;1.07;;
15063;SDS011;7631;52.088;5.088;2022-10-16T04:42:07;1.10;;;0.90;;
15063;SDS011;7631;52.088;5.088;2022-10-16T04:44:32;2.00;;;0.90;;
15063;SDS011;7631;52.088;5.088;2022-10-16T04:46:57;1.20;;;1.00;;
15063;SDS011;7631;52.088;5.088;2022-10-16T04:49:23;1.10;;;0.90;;
15063;SDS011;7631;52.088;5.088;2022-10-16T04:51:48;1.23;;;1.00;;
15063;SDS011;7631;52.088;5.088;2022-10-16T04:54:13;2.20;;;1.10;;
15063;SDS011;7631;52.088;5.088;2022-10-16T04:56:38;1.60;;;1.03;;
15063;SDS011;7631;52.088;5.088;2022-10-16T04:59:13;2.00;;;1.10;;
15063;SDS011;7631;52.088;5.088;2022-10-16T05:01:39;1.20;;;1.10;;
15063;SDS011;7631;52.088;5.088;2022-10-16T05:04:04;1.90;;;0.80;;
15063;SDS011;7631;52.088;5.088;2022-10-16T05:06:29;0.83;;;0.80;;
15063;SDS011;7631;52.088;5.088;2022-10-16T05:08:54;1.10;;;1.00;;
15063;SDS011;7631;52.088;5.088;2022-10-16T05:11:20;1.20;;;0.80;;
15063;SDS011;7631;52.088;5.088;2022-10-16T05:13:45;1.57;;;0.87;;
15063;SDS011;7631;52.088;5.088;2022-10-16T05:16:10;0.90;;;0.80;;
15063;SDS011;7631;52.088;5.088;2022-10-16T05:18:35;1.60;;;1.13;;
15063;SDS011;7631;52.088;5.088;2022-10-16T05:21:00;1.37;;;1.00;;
15063;SDS011;7631;52.088;5.088;2022-10-16T05:23:25;1.33;;;0.93;;
15063;SDS011;7631;52.088;5.088;2022-10-16T05:25:55;1.40;;;0.83;;
15063;SDS011;7631;52.088;5.088;2022-10-16T05:28:23;1.63;;;0.90;;
15063;SDS011;7631;52.088;5.088;2022-10-16T05:30:48;1.00;;;0.80;;
15063;SDS011;7631;52.088;5.088;2022-10-16T05:33:13;0.83;;;0.73;;
15063;SDS011;7631;52.088;5.088;2022-10-16T05:35:38;0.83;;;0.80;;
15063;SDS011;7631;52.088;5.088;2022-10-16T05:38:04;1.50;;;1.00;;
15063;SDS011;7631;52.088;5.088;2022-10-16T05:40:29;1.00;;;0.90;;
15063;SDS011;7631;52.088;5.088;2022-10-16T05:42:54;0.70;;;0.70;;
15063;SDS011;7631;52.088;5.088;2022-10-16T05:45:20;1.47;;;0.80;;
15063;SDS011;7631;52.088;5.088;2022-10-16T05:47:45;1.47;;;1.00;;
15063;SDS011;7631;52.088;5.088;2022-10-16T05:50:10;1.77;;;1.10;;
15063;SDS011;7631;52.088;5.088;2022-10-16T05:52:35;1.43;;;1.07;;
15063;SDS011;7631;52.088;5.088;2022-10-16T05:55:00;0.80;;;0.80;;
15063;SDS011;7631;52.088;5.088;2022-10-16T05:57:26;0.73;;;0.73;;
15063;SDS011;7631;52.088;5.088;2022-10-16T05:59:51;1.53;;;0.80;;
15063;SDS011;7631;52.088;5.088;2022-10-16T06:02:16;0.90;;;0.60;;
15063;SDS011;7631;52.088;5.088;2022-10-16T06:04:41;1.03;;;0.90;;
15063;SDS011;7631;52.088;5.088;2022-10-16T06:07:06;1.87;;;0.80;;
15063;SDS011;7631;52.088;5.088;2022-10-16T06:09:32;1.00;;;0.83;;
15063;SDS011;7631;52.088;5.088;2022-10-16T06:11:57;1.10;;;0.80;;
15063;SDS011;7631;52.088;5.088;2022-10-16T06:14:22;0.90;;;0.80;;
15063;SDS011;7631;52.088;5.088;2022-10-16T06:16:47;0.70;;;0.70;;
15063;SDS011;7631;52.088;5.088;2022-10-16T06:19:12;0.77;;;0.73;;
15063;SDS011;7631;52.088;5.088;2022-10-16T06:21:38;0.87;;;0.80;;
15063;SDS011;7631;52.088;5.088;2022-10-16T06:24:03;1.00;;;0.70;;
15063;SDS011;7631;52.088;5.088;2022-10-16T06:26:29;0.80;;;0.70;;
15063;SDS011;7631;52.088;5.088;2022-10-16T06:28:55;0.80;;;0.63;;
15063;SDS011;7631;52.088;5.088;2022-10-16T06:31:21;1.13;;;0.90;;
15063;SDS011;7631;52.088;5.088;2022-10-16T06:33:49;0.80;;;0.73;;
15063;SDS011;7631;52.088;5.088;2022-10-16T06:36:15;0.90;;;0.80;;
15063;SDS011;7631;52.088;5.088;2022-10-16T06:38:41;0.83;;;0.70;;
15063;SDS011;7631;52.088;5.088;2022-10-16T06:41:07;0.70;;;0.70;;
15063;SDS011;7631;52.088;5.088;2022-10-16T06:43:34;1.20;;;0.77;;
15063;SDS011;7631;52.088;5.088;2022-10-16T06:46:02;2.30;;;1.03;;
15063;SDS011;7631;52.088;5.088;2022-10-16T06:48:28;0.60;;;0.60;;
15063;SDS011;7631;52.088;5.088;2022-10-16T06:51:00;0.93;;;0.80;;
15063;SDS011;7631;52.088;5.088;2022-10-16T06:53:26;2.13;;;0.90;;
15063;SDS011;7631;52.088;5.088;2022-10-16T06:55:51;1.30;;;0.90;;
15063;SDS011;7631;52.088;5.088;2022-10-16T06:58:17;1.40;;;1.00;;
15063;SDS011;7631;52.088;5.088;2022-10-16T07:00:42;1.00;;;0.90;;
15063;SDS011;7631;52.088;5.088;2022-10-16T07:03:07;1.97;;;0.90;;
15063;SDS011;7631;52.088;5.088;2022-10-16T07:05:37;0.90;;;0.80;;
15063;SDS011;7631;52.088;5.088;2022-10-16T07:08:02;1.23;;;0.80;;
15063;SDS011;7631;52.088;5.088;2022-10-16T07:10:30;1.67;;;1.00;;
15063;SDS011;7631;52.088;5.088;2022-10-16T07:12:55;1.60;;;0.87;;
15063;SDS011;7631;52.088;5.088;2022-10-16T07:15:20;1.73;;;0.93;;
15063;SDS011;7631;52.088;5.088;2022-10-16T07:17:45;1.00;;;0.90;;
15063;SDS011;7631;52.088;5.088;2022-10-16T07:20:11;1.40;;;0.90;;
15063;SDS011;7631;52.088;5.088;2022-10-16T07:22:36;1.80;;;1.00;;
15063;SDS011;7631;52.088;5.088;2022-10-16T07:25:01;1.70;;;0.90;;
15063;SDS011;7631;52.088;5.088;2022-10-16T07:27:26;1.07;;;0.70;;
15063;SDS011;7631;52.088;5.088;2022-10-16T07:29:52;1.07;;;0.80;;
15063;SDS011;7631;52.088;5.088;2022-10-16T07:32:18;1.40;;;0.90;;
15063;SDS011;7631;52.088;5.088;2022-10-16T07:34:43;1.40;;;0.80;;
15063;SDS011;7631;52.088;5.088;2022-10-16T07:37:08;1.20;;;0.80;;
15063;SDS011;7631;52.088;5.088;2022-10-16T07:39:33;0.60;;;0.60;;
15063;SDS011;7631;52.088;5.088;2022-10-16T07:41:58;0.77;;;0.70;;
15063;SDS011;7631;52.088;5.088;2022-10-16T07:44:24;1.00;;;0.80;;
15063;SDS011;7631;52.088;5.088;2022-10-16T07:46:49;1.17;;;1.00;;
15063;SDS011;7631;52.088;5.088;2022-10-16T07:49:14;0.90;;;0.77;;
15063;SDS011;7631;52.088;5.088;2022-10-16T07:51:39;0.90;;;0.77;;
15063;SDS011;7631;52.088;5.088;2022-10-16T07:54:04;1.57;;;0.90;;
15063;SDS011;7631;52.088;5.088;2022-10-16T07:56:30;1.43;;;0.90;;
15063;SDS011;7631;52.088;5.088;2022-10-16T07:58:55;0.93;;;0.67;;
15063;SDS011;7631;52.088;5.088;2022-10-16T08:01:21;0.67;;;0.67;;
15063;SDS011;7631;52.088;5.088;2022-10-16T08:03:50;2.87;;;1.10;;
15063;SDS011;7631;52.088;5.088;2022-10-16T08:06:16;1.07;;;0.70;;
15063;SDS011;7631;52.088;5.088;2022-10-16T08:08:41;0.93;;;0.80;;
15063;SDS011;7631;52.088;5.088;2022-10-16T08:11:06;1.53;;;0.90;;
15063;SDS011;7631;52.088;5.088;2022-10-16T08:13:32;0.93;;;0.80;;
15063;SDS011;7631;52.088;5.088;2022-10-16T08:15:57;1.60;;;0.87;;
15063;SDS011;7631;52.088;5.088;2022-10-16T08:18:22;1.47;;;0.77;;
15063;SDS011;7631;52.088;5.088;2022-10-16T08:20:48;1.23;;;1.00;;
15063;SDS011;7631;52.088;5.088;2022-10-16T08:23:13;1.93;;;0.93;;
15063;SDS011;7631;52.088;5.088;2022-10-16T08:25:38;1.00;;;0.87;;
15063;SDS011;7631;52.088;5.088;2022-10-16T08:28:04;2.20;;;0.97;;
15063;SDS011;7631;52.088;5.088;2022-10-16T08:30:30;2.03;;;1.00;;
15063;SDS011;7631;52.088;5.088;2022-10-16T08:32:55;1.10;;;0.90;;
15063;SDS011;7631;52.088;5.088;2022-10-16T08:35:21;1.47;;;0.73;;
15063;SDS011;7631;52.088;5.088;2022-10-16T08:37:46;0.87;;;0.70;;
15063;SDS011;7631;52.088;5.088;2022-10-16T08:40:19;1.00;;;0.90;;
15063;SDS011;7631;52.088;5.088;2022-10-16T08:50:23;1.58;;;0.90;;
15063;SDS011;7631;52.088;5.088;2022-10-16T08:52:50;1.37;;;0.83;;
15063;SDS011;7631;52.088;5.088;2022-10-16T08:55:19;1.17;;;0.83;;
15063;SDS011;7631;52.088;5.088;2022-10-16T08:57:48;1.27;;;0.80;;
15063;SDS011;7631;52.088;5.088;2022-10-16T09:00:13;1.30;;;0.80;;
15063;SDS011;7631;52.088;5.088;2022-10-16T09:02:40;1.73;;;1.07;;
15063;SDS011;7631;52.088;5.088;2022-10-16T09:13:09;2.13;;;1.13;;
15063;SDS011;7631;52.088;5.088;2022-10-16T09:15:42;1.40;;;1.00;;
15063;SDS011;7631;52.088;5.088;2022-10-16T09:23:14;2.53;;;1.00;;
15063;SDS011;7631;52.088;5.088;2022-10-16T09:25:41;3.53;;;1.10;;
15063;SDS011;7631;52.088;5.088;2022-10-16T09:28:07;1.83;;;1.00;;
15063;SDS011;7631;52.088;5.088;2022-10-16T09:30:33;1.17;;;1.00;;
15063;SDS011;7631;52.088;5.088;2022-10-16T09:32:58;2.83;;;1.20;;
15063;SDS011;7631;52.088;5.088;2022-10-16T09:35:40;1.80;;;1.10;;
15063;SDS011;7631;52.088;5.088;2022-10-16T09:38:06;2.03;;;1.00;;
15063;SDS011;7631;52.088;5.088;2022-10-16T09:40:32;1.97;;;1.10;;
15063;SDS011;7631;52.088;5.088;2022-10-16T09:45:43;2.60;;;1.17;;
15063;SDS011;7631;52.088;5.088;2022-10-16T09:48:11;1.70;;;0.97;;
15063;SDS011;7631;52.088;5.088;2022-10-16T09:50:37;1.77;;;0.90;;
15063;SDS011;7631;52.088;5.088;2022-10-16T09:53:13;1.20;;;0.70;;
15063;SDS011;7631;52.088;5.088;2022-10-16T09:55:48;1.90;;;1.10;;
15063;SDS011;7631;52.088;5.088;2022-10-16T09:58:14;2.43;;;1.03;;
15063;SDS011;7631;52.088;5.088;2022-10-16T10:00:39;1.60;;;1.10;;
15063;SDS011;7631;52.088;5.088;2022-10-16T10:03:09;2.20;;;1.00;;
15063;SDS011;7631;52.088;5.088;2022-10-16T10:05:35;2.53;;;1.10;;
15063;SDS011;7631;52.088;5.088;2022-10-16T10:08:01;3.93;;;1.20;;
15063;SDS011;7631;52.088;5.088;2022-10-16T10:10:31;3.67;;;1.30;;
15063;SDS011;7631;52.088;5.088;2022-10-16T10:12:57;2.83;;;1.20;;
15063;SDS011;7631;52.088;5.088;2022-10-16T10:15:22;3.13;;;1.27;;
15063;SDS011;7631;52.088;5.088;2022-10-16T10:17:53;2.43;;;1.20;;
15063;SDS011;7631;52.088;5.088;2022-10-16T10:20:31;2.90;;;1.17;;
15063;SDS011;7631;52.088;5.088;2022-10-16T10:23:00;3.63;;;1.10;;
15063;SDS011;7631;52.088;5.088;2022-10-16T10:25:28;4.50;;;1.40;;
15063;SDS011;7631;52.088;5.088;2022-10-16T10:33:50;3.43;;;1.17;;
15063;SDS011;7631;52.088;5.088;2022-10-16T10:41:06;3.43;;;1.30;;
15063;SDS011;7631;52.088;5.088;2022-10-16T10:46:02;3.77;;;1.20;;
15063;SDS011;7631;52.088;5.088;2022-10-16T10:48:41;3.73;;;1.40;;
15063;SDS011;7631;52.088;5.088;2022-10-16T10:51:13;2.50;;;1.17;;
15063;SDS011;7631;52.088;5.088;2022-10-16T10:53:46;3.20;;;1.13;;
15063;SDS011;7631;52.088;5.088;2022-10-16T10:58:46;3.37;;;1.37;;
15063;SDS011;7631;52.088;5.088;2022-10-16T11:01:16;3.47;;;1.20;;
15063;SDS011;7631;52.088;5.088;2022-10-16T11:06:18;3.67;;;1.30;;
15063;SDS011;7631;52.088;5.088;2022-10-16T11:08:57;3.80;;;1.50;;
15063;SDS011;7631;52.088;5.088;2022-10-16T11:11:29;4.67;;;1.40;;
15063;SDS011;7631;52.088;5.088;2022-10-16T11:16:57;3.87;;;1.10;;
15063;SDS011;7631;52.088;5.088;2022-10-16T11:22:12;2.47;;;1.10;;
15063;SDS011;7631;52.088;5.088;2022-10-16T11:24:43;5.13;;;1.40;;
15063;SDS011;7631;52.088;5.088;2022-10-16T11:27:12;3.10;;;1.20;;
15063;SDS011;7631;52.088;5.088;2022-10-16T11:29:43;3.87;;;1.27;;
15063;SDS011;7631;52.088;5.088;2022-10-16T11:32:20;2.70;;;1.13;;
15063;SDS011;7631;52.088;5.088;2022-10-16T11:34:50;2.87;;;0.93;;
15063;SDS011;7631;52.088;5.088;2022-10-16T11:37:18;2.97;;;1.50;;
15063;SDS011;7631;52.088;5.088;2022-10-16T11:39:45;3.60;;;1.07;;
15063;SDS011;7631;52.088;5.088;2022-10-16T11:42:13;3.40;;;1.10;;
15063;SDS011;7631;52.088;5.088;2022-10-16T11:50:31;2.80;;;1.00;;
15063;SDS011;7631;52.088;5.088;2022-10-16T11:53:07;4.40;;;1.57;;
15063;SDS011;7631;52.088;5.088;2022-10-16T11:55:41;3.60;;;1.40;;
15063;SDS011;7631;52.088;5.088;2022-10-16T11:58:08;3.17;;;1.23;;
15063;SDS011;7631;52.088;5.088;2022-10-16T12:00:39;4.30;;;1.27;;
15063;SDS011;7631;52.088;5.088;2022-10-16T12:08:11;4.13;;;1.47;;
15063;SDS011;7631;52.088;5.088;2022-10-16T12:10:38;2.90;;;1.50;;
15063;SDS011;7631;52.088;5.088;2022-10-16T12:15:47;4.90;;;1.40;;
15063;SDS011;7631;52.088;5.088;2022-10-16T12:18:22;3.03;;;1.03;;
15063;SDS011;7631;52.088;5.088;2022-10-16T12:20:54;3.87;;;1.27;;
15063;SDS011;7631;52.088;5.088;2022-10-16T12:23:23;2.73;;;1.20;;
15063;SDS011;7631;52.088;5.088;2022-10-16T12:25:53;2.80;;;1.10;;
15063;SDS011;7631;52.088;5.088;2022-10-16T12:28:20;3.03;;;1.20;;
15063;SDS011;7631;52.088;5.088;2022-10-16T12:30:56;3.77;;;1.10;;
15063;SDS011;7631;52.088;5.088;2022-10-16T12:33:23;2.80;;;1.50;;
15063;SDS011;7631;52.088;5.088;2022-10-16T12:35:49;2.80;;;1.20;;
15063;SDS011;7631;52.088;5.088;2022-10-16T12:38:19;3.13;;;1.33;;
15063;SDS011;7631;52.088;5.088;2022-10-16T12:40:46;4.43;;;1.10;;
15063;SDS011;7631;52.088;5.088;2022-10-16T12:43:26;3.33;;;1.27;;
15063;SDS011;7631;52.088;5.088;2022-10-16T12:46:02;3.40;;;1.40;;
15063;SDS011;7631;52.088;5.088;2022-10-16T12:48:28;2.20;;;1.20;;
15063;SDS011;7631;52.088;5.088;2022-10-16T12:50:53;2.07;;;1.10;;
15063;SDS011;7631;52.088;5.088;2022-10-16T12:53:23;5.17;;;1.57;;
15063;SDS011;7631;52.088;5.088;2022-10-16T13:00:45;2.90;;;1.20;;
15063;SDS011;7631;52.088;5.088;2022-10-16T13:03:29;3.40;;;1.20;;
15063;SDS011;7631;52.088;5.088;2022-10-16T13:21:24;4.30;;;1.30;;
15063;SDS011;7631;52.088;5.088;2022-10-16T13:24:04;2.87;;;1.17;;
15063;SDS011;7631;52.088;5.088;2022-10-16T13:29:04;3.50;;;1.30;;
15063;SDS011;7631;52.088;5.088;2022-10-16T13:31:29;4.00;;;1.30;;
15063;SDS011;7631;52.088;5.088;2022-10-16T13:33:56;2.63;;;1.17;;
15063;SDS011;7631;52.088;5.088;2022-10-16T13:36:25;1.97;;;0.93;;
15063;SDS011;7631;52.088;5.088;2022-10-16T13:39:02;2.97;;;1.00;;
15063;SDS011;7631;52.088;5.088;2022-10-16T13:41:29;2.97;;;0.90;;
15063;SDS011;7631;52.088;5.088;2022-10-16T13:43:54;1.60;;;0.87;;
15063;SDS011;7631;52.088;5.088;2022-10-16T13:46:22;5.10;;;1.60;;
15063;SDS011;7631;52.088;5.088;2022-10-16T13:49:00;2.93;;;1.17;;
15063;SDS011;7631;52.088;5.088;2022-10-16T13:51:26;4.13;;;1.13;;
15063;SDS011;7631;52.088;5.088;2022-10-16T13:53:52;2.63;;;0.97;;
15063;SDS011;7631;52.088;5.088;2022-10-16T13:56:21;2.00;;;0.90;;
15063;SDS011;7631;52.088;5.088;2022-10-16T13:59:34;3.53;;;1.30;;
15063;SDS011;7631;52.088;5.088;2022-10-16T14:01:34;3.67;;;1.20;;
15063;SDS011;7631;52.088;5.088;2022-10-16T14:04:10;2.50;;;1.10;;
15063;SDS011;7631;52.088;5.088;2022-10-16T14:06:36;2.70;;;1.03;;
15063;SDS011;7631;52.088;5.088;2022-10-16T14:09:05;1.47;;;1.00;;
15063;SDS011;7631;52.088;5.088;2022-10-16T14:11:31;2.43;;;1.10;;
15063;SDS011;7631;52.088;5.088;2022-10-16T14:13:57;3.13;;;1.10;;
15063;SDS011;7631;52.088;5.088;2022-10-16T14:16:23;2.97;;;1.20;;
15063;SDS011;7631;52.088;5.088;2022-10-16T14:21:20;2.97;;;1.17;;
15063;SDS011;7631;52.088;5.088;2022-10-16T14:23:45;2.20;;;1.00;;
15063;SDS011;7631;52.088;5.088;2022-10-16T14:28:38;2.80;;;1.10;;
15063;SDS011;7631;52.088;5.088;2022-10-16T14:33:49;1.30;;;0.90;;
15063;SDS011;7631;52.088;5.088;2022-10-16T14:36:14;3.00;;;1.17;;
15063;SDS011;7631;52.088;5.088;2022-10-16T14:38:42;2.30;;;0.90;;
15063;SDS011;7631;52.088;5.088;2022-10-16T14:41:08;3.77;;;1.10;;
15063;SDS011;7631;52.088;5.088;2022-10-16T14:43:34;3.37;;;1.60;;
15063;SDS011;7631;52.088;5.088;2022-10-16T14:46:01;1.93;;;0.80;;
15063;SDS011;7631;52.088;5.088;2022-10-16T14:48:27;2.83;;;1.10;;
15063;SDS011;7631;52.088;5.088;2022-10-16T14:50:52;1.77;;;1.10;;
15063;SDS011;7631;52.088;5.088;2022-10-16T14:53:18;2.40;;;1.20;;
15063;SDS011;7631;52.088;5.088;2022-10-16T14:55:43;2.10;;;1.00;;
15063;SDS011;7631;52.088;5.088;2022-10-16T14:58:10;1.87;;;0.93;;
15063;SDS011;7631;52.088;5.088;2022-10-16T15:00:38;2.93;;;1.20;;
15063;SDS011;7631;52.088;5.088;2022-10-16T15:03:03;3.57;;;1.27;;
15063;SDS011;7631;52.088;5.088;2022-10-16T15:05:29;2.33;;;1.00;;
15063;SDS011;7631;52.088;5.088;2022-10-16T15:07:54;2.70;;;0.90;;
15063;SDS011;7631;52.088;5.088;2022-10-16T15:10:20;2.17;;;1.00;;
15063;SDS011;7631;52.088;5.088;2022-10-16T15:12:46;3.00;;;1.10;;
15063;SDS011;7631;52.088;5.088;2022-10-16T15:17:56;2.20;;;0.90;;
15063;SDS011;7631;52.088;5.088;2022-10-16T15:20:25;1.70;;;0.87;;
15063;SDS011;7631;52.088;5.088;2022-10-16T15:22:50;2.00;;;0.90;;
15063;SDS011;7631;52.088;5.088;2022-10-16T15:27:57;4.27;;;0.97;;
15063;SDS011;7631;52.088;5.088;2022-10-16T15:30:22;2.57;;;1.00;;
15063;SDS011;7631;52.088;5.088;2022-10-16T15:32:47;3.17;;;1.10;;
15063;SDS011;7631;52.088;5.088;2022-10-16T15:35:12;2.53;;;1.10;;
15063;SDS011;7631;52.088;5.088;2022-10-16T15:37:38;2.93;;;1.20;;
15063;SDS011;7631;52.088;5.088;2022-10-16T15:40:03;2.40;;;0.90;;
15063;SDS011;7631;52.088;5.088;2022-10-16T15:42:28;1.77;;;1.00;;
15063;SDS011;7631;52.088;5.088;2022-10-16T15:44:53;1.93;;;0.90;;
15063;SDS011;7631;52.088;5.088;2022-10-16T15:47:19;3.17;;;1.03;;
15063;SDS011;7631;52.088;5.088;2022-10-16T15:49:44;1.07;;;0.83;;
15063;SDS011;7631;52.088;5.088;2022-10-16T15:52:10;1.40;;;0.93;;
15063;SDS011;7631;52.088;5.088;2022-10-16T15:54:35;3.23;;;0.97;;
15063;SDS011;7631;52.088;5.088;2022-10-16T15:57:00;1.70;;;0.70;;
15063;SDS011;7631;52.088;5.088;2022-10-16T15:59:26;1.90;;;0.87;;
15063;SDS011;7631;52.088;5.088;2022-10-16T16:01:51;1.33;;;0.80;;
15063;SDS011;7631;52.088;5.088;2022-10-16T16:04:16;2.47;;;0.90;;
15063;SDS011;7631;52.088;5.088;2022-10-16T16:06:41;1.10;;;0.70;;
15063;SDS011;7631;52.088;5.088;2022-10-16T16:09:09;1.10;;;0.90;;
15063;SDS011;7631;52.088;5.088;2022-10-16T16:11:35;1.77;;;1.00;;
15063;SDS011;7631;52.088;5.088;2022-10-16T16:14:03;1.60;;;0.77;;
15063;SDS011;7631;52.088;5.088;2022-10-16T16:16:28;1.53;;;0.87;;
15063;SDS011;7631;52.088;5.088;2022-10-16T16:18:54;2.03;;;1.00;;
15063;SDS011;7631;52.088;5.088;2022-10-16T16:21:20;2.10;;;0.93;;
15063;SDS011;7631;52.088;5.088;2022-10-16T16:23:45;1.67;;;0.60;;
15063;SDS011;7631;52.088;5.088;2022-10-16T16:26:14;1.70;;;0.73;;
15063;SDS011;7631;52.088;5.088;2022-10-16T16:28:40;2.10;;;0.70;;
15063;SDS011;7631;52.088;5.088;2022-10-16T16:31:06;1.10;;;0.63;;
15063;SDS011;7631;52.088;5.088;2022-10-16T16:33:31;1.37;;;0.93;;
15063;SDS011;7631;52.088;5.088;2022-10-16T16:35:57;1.07;;;0.70;;
15063;SDS011;7631;52.088;5.088;2022-10-16T16:38:23;1.87;;;1.10;;
15063;SDS011;7631;52.088;5.088;2022-10-16T16:40:48;1.00;;;0.80;;
15063;SDS011;7631;52.088;5.088;2022-10-16T16:43:13;1.73;;;0.97;;
15063;SDS011;7631;52.088;5.088;2022-10-16T16:45:38;1.43;;;0.80;;
15063;SDS011;7631;52.088;5.088;2022-10-16T16:48:04;1.33;;;0.70;;